Jahroma, Russia
Current Conditions -  °F | °C
As of 6:00 PM on Sunday 21 Dec 2014 (Local Time) from UUEE Reporting Station
Broken Clouds Broken Clouds  
Wind Chill: 24°   Ceiling: 900
Heat Index: 34°   Visibility: 6mi
Dew Point: 32°   Wind: 13mph
Humidity: 93%   Direction: 220°SW
Pressure: 29.47"   Gusts: NA
Location:  56.3°N, 37.48°E
Report Text: UUEE 211500Z 22006MPS 9999 BKN009 01/00 Q0998 75520145 25520145NOSIG
Loading
Personal Weather Stations






























Interactive Weather Map New forecast layout! Learn more

10-Day Weather Forecast

Advertisements
Track Severe Weather on mobile